sensor_id;sensor_type;location;lat;lon;timestamp;P1;durP1;ratioP1;P2;durP2;ratioP2
24443;SDS011;13346;50.984;5.822;2024-01-30T00:01:15;6.90;;;6.20;;
24443;SDS011;13346;50.984;5.822;2024-01-30T00:03:44;7.13;;;6.43;;
24443;SDS011;13346;50.984;5.822;2024-01-30T00:06:11;6.60;;;5.97;;
24443;SDS011;13346;50.984;5.822;2024-01-30T00:08:38;6.83;;;6.33;;
24443;SDS011;13346;50.984;5.822;2024-01-30T00:11:05;8.17;;;5.70;;
24443;SDS011;13346;50.984;5.822;2024-01-30T00:13:34;6.27;;;5.87;;
24443;SDS011;13346;50.984;5.822;2024-01-30T00:16:01;6.63;;;5.97;;
24443;SDS011;13346;50.984;5.822;2024-01-30T00:18:29;6.47;;;5.87;;
24443;SDS011;13346;50.984;5.822;2024-01-30T00:20:58;5.77;;;5.37;;
24443;SDS011;13346;50.984;5.822;2024-01-30T00:23:25;6.13;;;5.70;;
24443;SDS011;13346;50.984;5.822;2024-01-30T00:25:52;7.00;;;6.40;;
24443;SDS011;13346;50.984;5.822;2024-01-30T00:28:19;6.20;;;5.80;;
24443;SDS011;13346;50.984;5.822;2024-01-30T00:30:46;6.40;;;6.00;;
24443;SDS011;13346;50.984;5.822;2024-01-30T00:33:13;6.10;;;5.50;;
24443;SDS011;13346;50.984;5.822;2024-01-30T00:35:41;6.17;;;5.57;;
24443;SDS011;13346;50.984;5.822;2024-01-30T00:38:09;6.00;;;5.60;;
24443;SDS011;13346;50.984;5.822;2024-01-30T00:40:36;5.73;;;5.20;;
24443;SDS011;13346;50.984;5.822;2024-01-30T00:43:03;6.07;;;5.13;;
24443;SDS011;13346;50.984;5.822;2024-01-30T00:45:31;6.93;;;5.87;;
24443;SDS011;13346;50.984;5.822;2024-01-30T00:47:58;6.03;;;5.47;;
24443;SDS011;13346;50.984;5.822;2024-01-30T00:50:25;5.83;;;5.43;;
24443;SDS011;13346;50.984;5.822;2024-01-30T00:52:52;5.80;;;5.30;;
24443;SDS011;13346;50.984;5.822;2024-01-30T00:55:20;6.13;;;5.73;;
24443;SDS011;13346;50.984;5.822;2024-01-30T00:57:47;5.47;;;4.87;;
24443;SDS011;13346;50.984;5.822;2024-01-30T01:00:15;6.23;;;5.17;;
24443;SDS011;13346;50.984;5.822;2024-01-30T01:02:42;5.77;;;5.27;;
24443;SDS011;13346;50.984;5.822;2024-01-30T01:05:10;5.50;;;5.03;;
24443;SDS011;13346;50.984;5.822;2024-01-30T01:07:37;5.67;;;5.13;;
24443;SDS011;13346;50.984;5.822;2024-01-30T01:10:05;6.10;;;5.60;;
24443;SDS011;13346;50.984;5.822;2024-01-30T01:12:35;7.13;;;5.67;;
24443;SDS011;13346;50.984;5.822;2024-01-30T01:15:02;5.07;;;4.50;;
24443;SDS011;13346;50.984;5.822;2024-01-30T01:17:30;5.83;;;5.30;;
24443;SDS011;13346;50.984;5.822;2024-01-30T01:19:57;4.77;;;4.37;;
24443;SDS011;13346;50.984;5.822;2024-01-30T01:22:24;4.97;;;4.47;;
24443;SDS011;13346;50.984;5.822;2024-01-30T01:24:51;4.90;;;4.37;;
24443;SDS011;13346;50.984;5.822;2024-01-30T01:27:18;5.00;;;4.50;;
24443;SDS011;13346;50.984;5.822;2024-01-30T01:29:47;6.03;;;4.90;;
24443;SDS011;13346;50.984;5.822;2024-01-30T01:32:14;5.80;;;5.30;;
24443;SDS011;13346;50.984;5.822;2024-01-30T01:34:41;7.17;;;5.30;;
24443;SDS011;13346;50.984;5.822;2024-01-30T01:37:09;4.77;;;4.37;;
24443;SDS011;13346;50.984;5.822;2024-01-30T01:39:36;6.73;;;5.10;;
24443;SDS011;13346;50.984;5.822;2024-01-30T01:42:03;4.60;;;4.20;;
24443;SDS011;13346;50.984;5.822;2024-01-30T01:44:31;5.27;;;4.77;;
24443;SDS011;13346;50.984;5.822;2024-01-30T01:46:59;5.77;;;5.07;;
24443;SDS011;13346;50.984;5.822;2024-01-30T01:49:27;6.53;;;5.00;;
24443;SDS011;13346;50.984;5.822;2024-01-30T01:51:55;4.63;;;4.33;;
24443;SDS011;13346;50.984;5.822;2024-01-30T01:54:23;7.20;;;5.03;;
24443;SDS011;13346;50.984;5.822;2024-01-30T01:56:51;5.33;;;4.83;;
24443;SDS011;13346;50.984;5.822;2024-01-30T01:59:19;4.53;;;4.10;;
24443;SDS011;13346;50.984;5.822;2024-01-30T02:01:47;5.10;;;4.70;;
24443;SDS011;13346;50.984;5.822;2024-01-30T02:04:16;4.77;;;4.30;;
24443;SDS011;13346;50.984;5.822;2024-01-30T02:06:43;4.70;;;4.27;;
24443;SDS011;13346;50.984;5.822;2024-01-30T02:09:11;6.13;;;4.97;;
24443;SDS011;13346;50.984;5.822;2024-01-30T02:11:38;5.10;;;4.10;;
24443;SDS011;13346;50.984;5.822;2024-01-30T02:14:06;4.93;;;3.80;;
24443;SDS011;13346;50.984;5.822;2024-01-30T02:16:33;4.60;;;4.10;;
24443;SDS011;13346;50.984;5.822;2024-01-30T02:19:00;4.87;;;4.47;;
24443;SDS011;13346;50.984;5.822;2024-01-30T02:21:28;4.63;;;4.13;;
24443;SDS011;13346;50.984;5.822;2024-01-30T02:23:56;5.03;;;4.63;;
24443;SDS011;13346;50.984;5.822;2024-01-30T02:26:24;4.20;;;3.83;;
24443;SDS011;13346;50.984;5.822;2024-01-30T02:28:52;4.23;;;3.93;;
24443;SDS011;13346;50.984;5.822;2024-01-30T02:31:19;4.37;;;4.07;;
24443;SDS011;13346;50.984;5.822;2024-01-30T02:33:46;5.13;;;3.77;;
24443;SDS011;13346;50.984;5.822;2024-01-30T02:36:13;4.17;;;3.83;;
24443;SDS011;13346;50.984;5.822;2024-01-30T02:38:42;5.20;;;4.70;;
24443;SDS011;13346;50.984;5.822;2024-01-30T02:41:09;4.50;;;3.97;;
24443;SDS011;13346;50.984;5.822;2024-01-30T02:43:36;4.47;;;4.07;;
24443;SDS011;13346;50.984;5.822;2024-01-30T02:46:03;3.73;;;3.50;;
24443;SDS011;13346;50.984;5.822;2024-01-30T02:48:30;4.53;;;4.13;;
24443;SDS011;13346;50.984;5.822;2024-01-30T02:50:58;4.40;;;3.97;;
24443;SDS011;13346;50.984;5.822;2024-01-30T02:53:25;5.63;;;3.53;;
24443;SDS011;13346;50.984;5.822;2024-01-30T02:55:54;4.87;;;3.77;;
24443;SDS011;13346;50.984;5.822;2024-01-30T02:58:21;6.33;;;4.07;;
24443;SDS011;13346;50.984;5.822;2024-01-30T03:00:48;4.47;;;3.70;;
24443;SDS011;13346;50.984;5.822;2024-01-30T03:03:15;4.60;;;4.30;;
24443;SDS011;13346;50.984;5.822;2024-01-30T03:05:42;3.33;;;3.03;;
24443;SDS011;13346;50.984;5.822;2024-01-30T03:08:09;4.60;;;3.90;;
24443;SDS011;13346;50.984;5.822;2024-01-30T03:10:36;3.27;;;3.10;;
24443;SDS011;13346;50.984;5.822;2024-01-30T03:13:05;5.47;;;3.80;;
24443;SDS011;13346;50.984;5.822;2024-01-30T03:15:32;4.63;;;3.83;;
24443;SDS011;13346;50.984;5.822;2024-01-30T03:17:59;7.07;;;3.83;;
24443;SDS011;13346;50.984;5.822;2024-01-30T03:20:27;3.77;;;3.47;;
24443;SDS011;13346;50.984;5.822;2024-01-30T03:22:54;4.73;;;3.93;;
24443;SDS011;13346;50.984;5.822;2024-01-30T03:25:22;4.13;;;3.73;;
24443;SDS011;13346;50.984;5.822;2024-01-30T03:27:49;3.37;;;3.17;;
24443;SDS011;13346;50.984;5.822;2024-01-30T03:30:17;4.43;;;4.13;;
24443;SDS011;13346;50.984;5.822;2024-01-30T03:32:44;3.50;;;3.20;;
24443;SDS011;13346;50.984;5.822;2024-01-30T03:35:11;4.20;;;3.43;;
24443;SDS011;13346;50.984;5.822;2024-01-30T03:37:38;4.07;;;3.77;;
24443;SDS011;13346;50.984;5.822;2024-01-30T03:40:05;5.23;;;4.70;;
24443;SDS011;13346;50.984;5.822;2024-01-30T03:42:33;3.33;;;3.13;;
24443;SDS011;13346;50.984;5.822;2024-01-30T03:45:01;4.93;;;3.50;;
24443;SDS011;13346;50.984;5.822;2024-01-30T03:47:29;3.80;;;3.50;;
24443;SDS011;13346;50.984;5.822;2024-01-30T03:49:56;4.23;;;3.87;;
24443;SDS011;13346;50.984;5.822;2024-01-30T03:52:23;5.00;;;3.27;;
24443;SDS011;13346;50.984;5.822;2024-01-30T03:54:50;3.47;;;3.23;;
24443;SDS011;13346;50.984;5.822;2024-01-30T03:57:17;3.30;;;2.63;;
24443;SDS011;13346;50.984;5.822;2024-01-30T03:59:44;3.97;;;3.70;;
24443;SDS011;13346;50.984;5.822;2024-01-30T04:02:12;3.67;;;3.30;;
24443;SDS011;13346;50.984;5.822;2024-01-30T04:04:40;4.17;;;3.73;;
24443;SDS011;13346;50.984;5.822;2024-01-30T04:07:07;4.10;;;3.77;;
24443;SDS011;13346;50.984;5.822;2024-01-30T04:09:34;4.17;;;3.63;;
24443;SDS011;13346;50.984;5.822;2024-01-30T04:12:01;3.47;;;3.17;;
24443;SDS011;13346;50.984;5.822;2024-01-30T04:14:29;3.27;;;3.00;;
24443;SDS011;13346;50.984;5.822;2024-01-30T04:16:56;2.67;;;2.57;;
24443;SDS011;13346;50.984;5.822;2024-01-30T04:19:23;3.70;;;3.40;;
24443;SDS011;13346;50.984;5.822;2024-01-30T04:21:52;4.00;;;3.70;;
24443;SDS011;13346;50.984;5.822;2024-01-30T04:24:19;3.80;;;3.33;;
24443;SDS011;13346;50.984;5.822;2024-01-30T04:26:46;4.20;;;3.90;;
24443;SDS011;13346;50.984;5.822;2024-01-30T04:29:13;3.57;;;2.70;;
24443;SDS011;13346;50.984;5.822;2024-01-30T04:31:40;3.67;;;3.37;;
24443;SDS011;13346;50.984;5.822;2024-01-30T04:34:07;3.30;;;3.00;;
24443;SDS011;13346;50.984;5.822;2024-01-30T04:36:34;6.87;;;3.13;;
24443;SDS011;13346;50.984;5.822;2024-01-30T04:39:02;5.33;;;4.07;;
24443;SDS011;13346;50.984;5.822;2024-01-30T04:41:30;3.60;;;2.63;;
24443;SDS011;13346;50.984;5.822;2024-01-30T04:43:57;3.90;;;3.37;;
24443;SDS011;13346;50.984;5.822;2024-01-30T04:46:24;4.80;;;3.43;;
24443;SDS011;13346;50.984;5.822;2024-01-30T04:48:51;4.00;;;3.70;;
24443;SDS011;13346;50.984;5.822;2024-01-30T04:51:18;3.30;;;3.00;;
24443;SDS011;13346;50.984;5.822;2024-01-30T04:53:45;3.53;;;3.33;;
24443;SDS011;13346;50.984;5.822;2024-01-30T04:56:14;2.90;;;2.80;;
24443;SDS011;13346;50.984;5.822;2024-01-30T04:58:41;3.53;;;3.03;;
24443;SDS011;13346;50.984;5.822;2024-01-30T05:01:08;3.37;;;3.00;;
24443;SDS011;13346;50.984;5.822;2024-01-30T05:03:35;4.20;;;3.77;;
24443;SDS011;13346;50.984;5.822;2024-01-30T05:06:02;3.53;;;3.33;;
24443;SDS011;13346;50.984;5.822;2024-01-30T05:08:29;3.63;;;3.43;;
24443;SDS011;13346;50.984;5.822;2024-01-30T05:10:59;3.17;;;2.87;;
24443;SDS011;13346;50.984;5.822;2024-01-30T05:13:30;3.93;;;3.63;;
24443;SDS011;13346;50.984;5.822;2024-01-30T05:15:57;3.40;;;2.50;;
24443;SDS011;13346;50.984;5.822;2024-01-30T05:18:24;3.87;;;3.40;;
24443;SDS011;13346;50.984;5.822;2024-01-30T05:20:51;3.70;;;3.43;;
24443;SDS011;13346;50.984;5.822;2024-01-30T05:23:18;3.70;;;3.33;;
24443;SDS011;13346;50.984;5.822;2024-01-30T05:25:45;3.47;;;3.17;;
24443;SDS011;13346;50.984;5.822;2024-01-30T05:28:12;3.60;;;3.40;;
24443;SDS011;13346;50.984;5.822;2024-01-30T05:30:41;4.07;;;3.50;;
24443;SDS011;13346;50.984;5.822;2024-01-30T05:33:08;3.80;;;3.40;;
24443;SDS011;13346;50.984;5.822;2024-01-30T05:35:37;4.00;;;3.47;;
24443;SDS011;13346;50.984;5.822;2024-01-30T05:38:04;4.40;;;3.30;;
24443;SDS011;13346;50.984;5.822;2024-01-30T05:40:31;3.57;;;3.37;;
24443;SDS011;13346;50.984;5.822;2024-01-30T05:42:58;4.63;;;3.73;;
24443;SDS011;13346;50.984;5.822;2024-01-30T05:45:27;3.37;;;3.17;;
24443;SDS011;13346;50.984;5.822;2024-01-30T05:47:56;3.20;;;3.00;;
24443;SDS011;13346;50.984;5.822;2024-01-30T05:50:23;4.83;;;2.83;;
24443;SDS011;13346;50.984;5.822;2024-01-30T05:52:51;4.17;;;3.83;;
24443;SDS011;13346;50.984;5.822;2024-01-30T05:55:18;3.60;;;3.40;;
24443;SDS011;13346;50.984;5.822;2024-01-30T05:57:46;4.00;;;3.60;;
24443;SDS011;13346;50.984;5.822;2024-01-30T06:00:13;3.70;;;3.30;;
24443;SDS011;13346;50.984;5.822;2024-01-30T06:02:41;4.13;;;3.73;;
24443;SDS011;13346;50.984;5.822;2024-01-30T06:05:10;6.07;;;3.50;;
24443;SDS011;13346;50.984;5.822;2024-01-30T06:07:37;3.63;;;3.33;;
24443;SDS011;13346;50.984;5.822;2024-01-30T06:10:05;3.57;;;3.27;;
24443;SDS011;13346;50.984;5.822;2024-01-30T06:12:33;3.50;;;3.20;;
24443;SDS011;13346;50.984;5.822;2024-01-30T06:15:01;3.80;;;3.47;;
24443;SDS011;13346;50.984;5.822;2024-01-30T06:17:28;4.03;;;3.73;;
24443;SDS011;13346;50.984;5.822;2024-01-30T06:19:55;3.73;;;3.53;;
24443;SDS011;13346;50.984;5.822;2024-01-30T06:22:24;3.33;;;3.03;;
24443;SDS011;13346;50.984;5.822;2024-01-30T06:24:51;3.53;;;3.30;;
24443;SDS011;13346;50.984;5.822;2024-01-30T06:27:18;3.33;;;3.07;;
24443;SDS011;13346;50.984;5.822;2024-01-30T06:29:45;4.10;;;3.80;;
24443;SDS011;13346;50.984;5.822;2024-01-30T06:32:12;4.20;;;3.80;;
24443;SDS011;13346;50.984;5.822;2024-01-30T06:34:40;4.60;;;4.20;;
24443;SDS011;13346;50.984;5.822;2024-01-30T06:37:09;4.27;;;3.30;;
24443;SDS011;13346;50.984;5.822;2024-01-30T06:39:38;4.03;;;3.77;;
24443;SDS011;13346;50.984;5.822;2024-01-30T06:42:05;4.70;;;3.97;;
24443;SDS011;13346;50.984;5.822;2024-01-30T06:44:32;4.07;;;3.67;;
24443;SDS011;13346;50.984;5.822;2024-01-30T06:46:59;3.60;;;3.30;;
24443;SDS011;13346;50.984;5.822;2024-01-30T06:49:27;4.27;;;3.37;;
24443;SDS011;13346;50.984;5.822;2024-01-30T06:51:54;3.33;;;3.13;;
24443;SDS011;13346;50.984;5.822;2024-01-30T06:54:21;5.17;;;3.70;;
24443;SDS011;13346;50.984;5.822;2024-01-30T06:56:49;3.93;;;3.60;;
24443;SDS011;13346;50.984;5.822;2024-01-30T06:59:16;3.80;;;3.50;;
24443;SDS011;13346;50.984;5.822;2024-01-30T07:01:44;3.80;;;2.87;;
24443;SDS011;13346;50.984;5.822;2024-01-30T07:04:11;3.60;;;3.30;;
24443;SDS011;13346;50.984;5.822;2024-01-30T07:06:38;3.80;;;3.40;;
24443;SDS011;13346;50.984;5.822;2024-01-30T07:09:05;3.87;;;3.63;;
24443;SDS011;13346;50.984;5.822;2024-01-30T07:11:33;5.30;;;3.83;;
24443;SDS011;13346;50.984;5.822;2024-01-30T07:14:02;3.70;;;3.20;;
24443;SDS011;13346;50.984;5.822;2024-01-30T07:16:30;5.07;;;3.73;;
24443;SDS011;13346;50.984;5.822;2024-01-30T07:18:57;4.60;;;4.20;;
24443;SDS011;13346;50.984;5.822;2024-01-30T07:21:24;3.80;;;3.50;;
24443;SDS011;13346;50.984;5.822;2024-01-30T07:23:53;6.93;;;3.90;;
24443;SDS011;13346;50.984;5.822;2024-01-30T07:26:20;4.63;;;4.13;;
24443;SDS011;13346;50.984;5.822;2024-01-30T07:28:47;6.37;;;4.03;;
24443;SDS011;13346;50.984;5.822;2024-01-30T07:31:16;4.07;;;3.80;;
24443;SDS011;13346;50.984;5.822;2024-01-30T07:33:45;4.27;;;3.87;;
24443;SDS011;13346;50.984;5.822;2024-01-30T07:36:13;3.17;;;2.97;;
24443;SDS011;13346;50.984;5.822;2024-01-30T07:38:40;4.10;;;3.87;;
24443;SDS011;13346;50.984;5.822;2024-01-30T07:41:07;3.70;;;3.50;;
24443;SDS011;13346;50.984;5.822;2024-01-30T07:43:34;5.37;;;4.33;;
24443;SDS011;13346;50.984;5.822;2024-01-30T07:46:01;4.33;;;3.93;;
24443;SDS011;13346;50.984;5.822;2024-01-30T07:48:30;4.23;;;3.80;;
24443;SDS011;13346;50.984;5.822;2024-01-30T07:50:59;5.10;;;4.20;;
24443;SDS011;13346;50.984;5.822;2024-01-30T07:53:28;5.07;;;4.37;;
24443;SDS011;13346;50.984;5.822;2024-01-30T07:55:55;4.93;;;4.10;;
24443;SDS011;13346;50.984;5.822;2024-01-30T07:58:23;3.90;;;2.80;;
24443;SDS011;13346;50.984;5.822;2024-01-30T08:00:52;4.10;;;3.40;;
24443;SDS011;13346;50.984;5.822;2024-01-30T08:03:22;4.60;;;3.80;;
24443;SDS011;13346;50.984;5.822;2024-01-30T08:05:50;3.73;;;3.43;;
24443;SDS011;13346;50.984;5.822;2024-01-30T08:08:17;2.97;;;2.77;;
24443;SDS011;13346;50.984;5.822;2024-01-30T08:10:45;4.30;;;4.00;;
24443;SDS011;13346;50.984;5.822;2024-01-30T08:13:12;3.70;;;3.40;;
24443;SDS011;13346;50.984;5.822;2024-01-30T08:15:39;5.60;;;4.67;;
24443;SDS011;13346;50.984;5.822;2024-01-30T08:18:06;3.87;;;3.57;;
24443;SDS011;13346;50.984;5.822;2024-01-30T08:20:33;5.63;;;4.03;;
24443;SDS011;13346;50.984;5.822;2024-01-30T08:23:02;6.97;;;3.30;;
24443;SDS011;13346;50.984;5.822;2024-01-30T08:25:29;3.90;;;3.60;;
24443;SDS011;13346;50.984;5.822;2024-01-30T08:27:56;4.57;;;4.17;;
24443;SDS011;13346;50.984;5.822;2024-01-30T08:30:23;4.37;;;3.93;;
24443;SDS011;13346;50.984;5.822;2024-01-30T08:32:51;5.63;;;4.27;;
24443;SDS011;13346;50.984;5.822;2024-01-30T08:35:18;6.30;;;4.30;;
24443;SDS011;13346;50.984;5.822;2024-01-30T08:37:45;5.37;;;4.37;;
24443;SDS011;13346;50.984;5.822;2024-01-30T08:40:14;4.23;;;3.93;;
24443;SDS011;13346;50.984;5.822;2024-01-30T08:42:41;3.70;;;3.50;;
24443;SDS011;13346;50.984;5.822;2024-01-30T08:45:09;4.60;;;4.20;;
24443;SDS011;13346;50.984;5.822;2024-01-30T08:47:37;4.97;;;4.47;;
24443;SDS011;13346;50.984;5.822;2024-01-30T08:50:04;3.97;;;3.67;;
24443;SDS011;13346;50.984;5.822;2024-01-30T08:52:32;12.93;;;3.33;;
24443;SDS011;13346;50.984;5.822;2024-01-30T08:55:00;7.00;;;5.07;;
24443;SDS011;13346;50.984;5.822;2024-01-30T08:57:29;3.87;;;3.57;;
24443;SDS011;13346;50.984;5.822;2024-01-30T08:59:56;4.30;;;4.00;;
24443;SDS011;13346;50.984;5.822;2024-01-30T09:02:23;5.83;;;4.80;;
24443;SDS011;13346;50.984;5.822;2024-01-30T09:04:50;5.33;;;3.93;;
24443;SDS011;13346;50.984;5.822;2024-01-30T09:07:17;3.40;;;2.63;;
24443;SDS011;13346;50.984;5.822;2024-01-30T09:09:44;4.03;;;3.10;;
24443;SDS011;13346;50.984;5.822;2024-01-30T09:12:12;5.47;;;3.57;;
24443;SDS011;13346;50.984;5.822;2024-01-30T09:14:41;4.90;;;3.73;;
24443;SDS011;13346;50.984;5.822;2024-01-30T09:17:08;3.37;;;2.97;;
24443;SDS011;13346;50.984;5.822;2024-01-30T09:19:35;3.77;;;3.23;;
24443;SDS011;13346;50.984;5.822;2024-01-30T09:22:03;5.23;;;4.17;;
24443;SDS011;13346;50.984;5.822;2024-01-30T09:24:30;6.30;;;5.80;;
24443;SDS011;13346;50.984;5.822;2024-01-30T09:26:57;12.10;;;9.63;;
24443;SDS011;13346;50.984;5.822;2024-01-30T09:29:24;4.00;;;3.70;;
24443;SDS011;13346;50.984;5.822;2024-01-30T09:31:53;5.37;;;3.67;;
24443;SDS011;13346;50.984;5.822;2024-01-30T09:34:20;4.47;;;4.13;;
24443;SDS011;13346;50.984;5.822;2024-01-30T09:36:47;3.30;;;3.00;;
24443;SDS011;13346;50.984;5.822;2024-01-30T09:39:14;4.87;;;4.43;;
24443;SDS011;13346;50.984;5.822;2024-01-30T09:41:44;4.87;;;4.17;;
24443;SDS011;13346;50.984;5.822;2024-01-30T09:44:15;5.93;;;4.03;;
24443;SDS011;13346;50.984;5.822;2024-01-30T09:46:42;4.70;;;4.30;;
24443;SDS011;13346;50.984;5.822;2024-01-30T09:49:14;5.90;;;3.57;;
24443;SDS011;13346;50.984;5.822;2024-01-30T09:51:44;4.93;;;3.40;;
24443;SDS011;13346;50.984;5.822;2024-01-30T09:54:13;5.87;;;3.13;;
24443;SDS011;13346;50.984;5.822;2024-01-30T09:56:41;4.03;;;3.43;;
24443;SDS011;13346;50.984;5.822;2024-01-30T09:59:08;4.03;;;3.47;;
24443;SDS011;13346;50.984;5.822;2024-01-30T10:01:36;10.83;;;3.57;;
24443;SDS011;13346;50.984;5.822;2024-01-30T10:04:04;5.90;;;4.60;;
24443;SDS011;13346;50.984;5.822;2024-01-30T10:06:33;2.87;;;2.67;;
24443;SDS011;13346;50.984;5.822;2024-01-30T10:09:01;9.97;;;4.50;;
24443;SDS011;13346;50.984;5.822;2024-01-30T10:11:28;4.20;;;3.90;;
24443;SDS011;13346;50.984;5.822;2024-01-30T10:13:55;3.40;;;3.00;;
24443;SDS011;13346;50.984;5.822;2024-01-30T10:16:23;4.50;;;4.07;;
24443;SDS011;13346;50.984;5.822;2024-01-30T10:18:50;4.23;;;3.83;;
24443;SDS011;13346;50.984;5.822;2024-01-30T10:21:17;5.40;;;4.33;;
24443;SDS011;13346;50.984;5.822;2024-01-30T10:23:46;3.37;;;3.13;;
24443;SDS011;13346;50.984;5.822;2024-01-30T10:26:15;4.57;;;4.10;;
24443;SDS011;13346;50.984;5.822;2024-01-30T10:28:43;8.63;;;4.30;;
24443;SDS011;13346;50.984;5.822;2024-01-30T10:31:10;6.10;;;4.50;;
24443;SDS011;13346;50.984;5.822;2024-01-30T10:33:37;3.10;;;2.90;;
24443;SDS011;13346;50.984;5.822;2024-01-30T10:36:04;9.30;;;4.50;;
24443;SDS011;13346;50.984;5.822;2024-01-30T10:38:32;4.40;;;3.87;;
24443;SDS011;13346;50.984;5.822;2024-01-30T10:41:01;3.77;;;3.27;;
24443;SDS011;13346;50.984;5.822;2024-01-30T10:43:30;7.53;;;4.17;;
24443;SDS011;13346;50.984;5.822;2024-01-30T10:46:01;8.03;;;3.70;;
24443;SDS011;13346;50.984;5.822;2024-01-30T10:48:39;4.83;;;4.43;;
24443;SDS011;13346;50.984;5.822;2024-01-30T10:51:10;6.13;;;4.13;;
24443;SDS011;13346;50.984;5.822;2024-01-30T10:53:38;9.73;;;4.50;;
24443;SDS011;13346;50.984;5.822;2024-01-30T10:56:09;4.00;;;3.70;;
24443;SDS011;13346;50.984;5.822;2024-01-30T10:58:38;5.10;;;4.30;;
24443;SDS011;13346;50.984;5.822;2024-01-30T11:01:05;3.83;;;3.53;;
24443;SDS011;13346;50.984;5.822;2024-01-30T11:03:34;4.63;;;4.23;;
24443;SDS011;13346;50.984;5.822;2024-01-30T11:06:02;4.27;;;3.97;;
24443;SDS011;13346;50.984;5.822;2024-01-30T11:08:31;7.70;;;4.87;;
24443;SDS011;13346;50.984;5.822;2024-01-30T11:10:59;6.77;;;5.30;;
24443;SDS011;13346;50.984;5.822;2024-01-30T11:13:28;5.13;;;4.10;;
24443;SDS011;13346;50.984;5.822;2024-01-30T11:15:59;4.83;;;4.43;;
24443;SDS011;13346;50.984;5.822;2024-01-30T11:18:29;4.93;;;4.50;;
24443;SDS011;13346;50.984;5.822;2024-01-30T11:20:57;9.20;;;5.33;;
24443;SDS011;13346;50.984;5.822;2024-01-30T11:23:26;5.23;;;4.23;;
24443;SDS011;13346;50.984;5.822;2024-01-30T11:25:53;5.50;;;4.67;;
24443;SDS011;13346;50.984;5.822;2024-01-30T11:28:22;5.77;;;5.17;;
24443;SDS011;13346;50.984;5.822;2024-01-30T11:30:51;5.80;;;5.30;;
24443;SDS011;13346;50.984;5.822;2024-01-30T11:33:29;4.83;;;4.40;;
24443;SDS011;13346;50.984;5.822;2024-01-30T11:35:57;5.50;;;5.00;;
24443;SDS011;13346;50.984;5.822;2024-01-30T11:38:25;5.37;;;4.13;;
24443;SDS011;13346;50.984;5.822;2024-01-30T11:40:54;5.37;;;4.93;;
24443;SDS011;13346;50.984;5.822;2024-01-30T11:43:22;6.40;;;5.10;;
24443;SDS011;13346;50.984;5.822;2024-01-30T11:45:51;5.60;;;4.87;;
24443;SDS011;13346;50.984;5.822;2024-01-30T11:48:18;5.30;;;4.57;;
24443;SDS011;13346;50.984;5.822;2024-01-30T11:50:46;6.53;;;5.03;;
24443;SDS011;13346;50.984;5.822;2024-01-30T11:53:13;7.07;;;4.43;;
24443;SDS011;13346;50.984;5.822;2024-01-30T11:55:40;5.00;;;4.70;;
24443;SDS011;13346;50.984;5.822;2024-01-30T11:58:08;5.73;;;4.00;;
24443;SDS011;13346;50.984;5.822;2024-01-30T12:00:35;4.43;;;4.03;;
24443;SDS011;13346;50.984;5.822;2024-01-30T12:03:03;5.37;;;4.90;;
24443;SDS011;13346;50.984;5.822;2024-01-30T12:05:32;6.33;;;4.57;;
24443;SDS011;13346;50.984;5.822;2024-01-30T12:07:59;7.23;;;4.83;;
24443;SDS011;13346;50.984;5.822;2024-01-30T12:10:27;5.23;;;4.63;;
24443;SDS011;13346;50.984;5.822;2024-01-30T12:12:54;6.63;;;5.73;;
24443;SDS011;13346;50.984;5.822;2024-01-30T12:15:22;10.67;;;6.60;;
24443;SDS011;13346;50.984;5.822;2024-01-30T12:17:49;5.03;;;4.63;;
24443;SDS011;13346;50.984;5.822;2024-01-30T12:20:18;7.33;;;5.33;;
24443;SDS011;13346;50.984;5.822;2024-01-30T12:22:48;8.13;;;5.13;;
24443;SDS011;13346;50.984;5.822;2024-01-30T12:25:17;7.87;;;6.10;;
24443;SDS011;13346;50.984;5.822;2024-01-30T12:27:46;9.97;;;6.53;;
24443;SDS011;13346;50.984;5.822;2024-01-30T12:30:15;10.77;;;5.80;;
24443;SDS011;13346;50.984;5.822;2024-01-30T12:32:43;8.50;;;5.90;;
24443;SDS011;13346;50.984;5.822;2024-01-30T12:35:11;13.27;;;6.60;;
24443;SDS011;13346;50.984;5.822;2024-01-30T12:37:41;7.37;;;6.63;;
24443;SDS011;13346;50.984;5.822;2024-01-30T12:40:10;7.47;;;5.70;;
24443;SDS011;13346;50.984;5.822;2024-01-30T12:42:39;6.87;;;5.83;;
24443;SDS011;13346;50.984;5.822;2024-01-30T12:45:08;6.83;;;5.57;;
24443;SDS011;13346;50.984;5.822;2024-01-30T12:47:35;6.63;;;5.83;;
24443;SDS011;13346;50.984;5.822;2024-01-30T12:50:02;6.23;;;5.13;;
24443;SDS011;13346;50.984;5.822;2024-01-30T12:52:30;6.93;;;6.23;;
24443;SDS011;13346;50.984;5.822;2024-01-30T12:54:59;6.77;;;6.13;;
24443;SDS011;13346;50.984;5.822;2024-01-30T12:57:26;6.33;;;5.13;;
24443;SDS011;13346;50.984;5.822;2024-01-30T12:59:53;8.10;;;5.50;;
24443;SDS011;13346;50.984;5.822;2024-01-30T13:02:20;6.77;;;5.80;;
24443;SDS011;13346;50.984;5.822;2024-01-30T13:04:48;7.87;;;5.17;;
24443;SDS011;13346;50.984;5.822;2024-01-30T13:07:15;6.93;;;6.23;;
24443;SDS011;13346;50.984;5.822;2024-01-30T13:09:43;7.37;;;4.67;;
24443;SDS011;13346;50.984;5.822;2024-01-30T13:12:12;5.47;;;4.90;;
24443;SDS011;13346;50.984;5.822;2024-01-30T13:14:39;9.13;;;6.73;;
24443;SDS011;13346;50.984;5.822;2024-01-30T13:17:06;6.53;;;5.93;;
24443;SDS011;13346;50.984;5.822;2024-01-30T13:19:33;8.90;;;5.93;;
24443;SDS011;13346;50.984;5.822;2024-01-30T13:22:00;5.93;;;5.20;;
24443;SDS011;13346;50.984;5.822;2024-01-30T13:24:27;6.83;;;5.20;;
24443;SDS011;13346;50.984;5.822;2024-01-30T13:26:54;6.40;;;4.90;;
24443;SDS011;13346;50.984;5.822;2024-01-30T13:29:23;8.90;;;5.97;;
24443;SDS011;13346;50.984;5.822;2024-01-30T13:31:50;9.93;;;5.87;;
24443;SDS011;13346;50.984;5.822;2024-01-30T13:34:17;9.17;;;6.00;;
24443;SDS011;13346;50.984;5.822;2024-01-30T13:36:45;5.10;;;4.60;;
24443;SDS011;13346;50.984;5.822;2024-01-30T13:39:13;6.17;;;5.57;;
24443;SDS011;13346;50.984;5.822;2024-01-30T13:41:41;7.07;;;5.87;;
24443;SDS011;13346;50.984;5.822;2024-01-30T13:44:08;7.00;;;6.33;;
24443;SDS011;13346;50.984;5.822;2024-01-30T13:46:37;5.97;;;4.60;;
24443;SDS011;13346;50.984;5.822;2024-01-30T13:49:04;7.23;;;4.57;;
24443;SDS011;13346;50.984;5.822;2024-01-30T13:51:32;4.57;;;4.17;;
24443;SDS011;13346;50.984;5.822;2024-01-30T13:53:59;5.07;;;3.37;;
24443;SDS011;13346;50.984;5.822;2024-01-30T13:56:26;5.47;;;3.75;;
24443;SDS011;13346;50.984;5.822;2024-01-30T13:58:55;5.30;;;3.53;;
24443;SDS011;13346;50.984;5.822;2024-01-30T14:01:22;5.10;;;3.30;;
24443;SDS011;13346;50.984;5.822;2024-01-30T14:03:51;6.93;;;3.60;;
24443;SDS011;13346;50.984;5.822;2024-01-30T14:06:18;4.77;;;2.97;;
24443;SDS011;13346;50.984;5.822;2024-01-30T14:08:45;5.77;;;3.50;;
24443;SDS011;13346;50.984;5.822;2024-01-30T14:11:12;3.33;;;2.80;;
24443;SDS011;13346;50.984;5.822;2024-01-30T14:13:39;3.77;;;3.00;;
24443;SDS011;13346;50.984;5.822;2024-01-30T14:16:07;1.80;;;1.70;;
24443;SDS011;13346;50.984;5.822;2024-01-30T14:18:34;2.70;;;1.50;;
24443;SDS011;13346;50.984;5.822;2024-01-30T14:21:03;2.70;;;2.00;;
24443;SDS011;13346;50.984;5.822;2024-01-30T14:23:32;1.60;;;1.50;;
24443;SDS011;13346;50.984;5.822;2024-01-30T14:25:59;3.20;;;1.90;;
24443;SDS011;13346;50.984;5.822;2024-01-30T14:28:26;4.60;;;1.93;;
24443;SDS011;13346;50.984;5.822;2024-01-30T14:30:53;2.93;;;1.77;;
24443;SDS011;13346;50.984;5.822;2024-01-30T14:33:20;1.37;;;1.27;;
24443;SDS011;13346;50.984;5.822;2024-01-30T14:35:48;2.60;;;1.40;;
24443;SDS011;13346;50.984;5.822;2024-01-30T14:38:17;4.50;;;1.93;;
24443;SDS011;13346;50.984;5.822;2024-01-30T14:40:44;2.50;;;1.70;;
24443;SDS011;13346;50.984;5.822;2024-01-30T14:43:11;2.43;;;1.50;;
24443;SDS011;13346;50.984;5.822;2024-01-30T14:45:39;2.07;;;1.90;;
24443;SDS011;13346;50.984;5.822;2024-01-30T14:48:07;2.10;;;1.87;;
24443;SDS011;13346;50.984;5.822;2024-01-30T14:50:35;2.17;;;1.93;;